createdAt,value
2022-09-05T00:00:44.646Z,75.39
2022-09-05T00:03:53.203Z,75.23
2022-09-05T00:06:52.675Z,75.41
2022-09-05T00:09:38.373Z,75.65
2022-09-05T00:12:27.798Z,75.73
2022-09-05T00:15:39.454Z,75.86
2022-09-05T00:24:23.270Z,75.97
2022-09-05T00:24:32.019Z,76.01
2022-09-05T00:26:02.688Z,76.23
2022-09-05T00:29:06.571Z,76.30
2022-09-05T00:32:19.389Z,76.31
2022-09-05T00:35:14.211Z,76.10
2022-09-05T00:38:18.375Z,76.13
2022-09-05T00:41:13.847Z,76.37
2022-09-05T00:44:03.208Z,76.60
2022-09-05T00:47:40.113Z,76.05
2022-09-05T00:50:56.137Z,75.39
2022-09-05T00:54:01.176Z,75.86
2022-09-05T00:57:31.845Z,76.75
2022-09-05T01:00:23.799Z,77.08
2022-09-05T01:03:34.556Z,77.09
2022-09-05T01:07:04.230Z,77.07
2022-09-05T01:10:23.789Z,77.24
2022-09-05T01:13:43.187Z,77.28
2022-09-05T01:16:56.275Z,77.17
2022-09-05T01:19:44.706Z,77.21
2022-09-05T01:22:48.569Z,77.11
2022-09-05T01:25:48.974Z,77.15
2022-09-05T01:29:15.940Z,77.07
2022-09-05T01:32:22.426Z,77.03
2022-09-05T01:35:26.338Z,76.98
2022-09-05T01:38:27.334Z,76.94
2022-09-05T01:41:40.200Z,76.82
2022-09-05T01:45:04.328Z,76.77
2022-09-05T01:48:05.857Z,76.73
2022-09-05T01:51:29.001Z,76.63
2022-09-05T01:54:35.184Z,76.58
2022-09-05T01:57:58.324Z,76.57
2022-09-05T02:01:30.161Z,76.63
2022-09-05T02:04:22.943Z,76.70
2022-09-05T02:07:37.834Z,76.76
2022-09-05T02:11:03.835Z,76.79
2022-09-05T02:14:09.414Z,76.79
2022-09-05T02:17:08.445Z,76.87
2022-09-05T02:20:23.600Z,76.97
2022-09-05T02:23:32.589Z,77.03
2022-09-05T02:26:53.345Z,77.07
2022-09-05T02:29:57.886Z,77.09
2022-09-05T02:32:55.445Z,77.26
2022-09-05T02:36:17.210Z,77.48
2022-09-05T02:45:07.281Z,77.41
2022-09-05T02:45:18.300Z,77.44
2022-09-05T02:46:21.522Z,77.33
2022-09-05T02:52:16.796Z,77.40
2022-09-05T02:57:24.143Z,77.50
2022-09-05T02:57:35.334Z,77.58
2022-09-05T02:59:10.930Z,77.62
2022-09-05T03:02:30.846Z,77.65
2022-09-05T03:05:25.344Z,77.64
2022-09-05T03:08:24.307Z,77.68
2022-09-05T03:12:28.921Z,77.74
2022-09-05T03:15:46.617Z,77.88
2022-09-05T03:18:44.245Z,77.85
2022-09-05T03:22:00.445Z,77.86
2022-09-05T03:25:25.316Z,77.86
2022-09-05T03:28:47.502Z,77.90
2022-09-05T03:32:10.402Z,78.12
2022-09-05T03:35:15.313Z,78.14
2022-09-05T03:38:39.761Z,78.02
2022-09-05T03:41:56.714Z,78.30
2022-09-05T03:44:50.976Z,78.40
2022-09-05T03:47:38.679Z,78.28
2022-09-05T03:55:18.605Z,78.48
2022-09-05T03:57:14.133Z,78.32
2022-09-05T03:57:42.600Z,78.45
2022-09-05T04:00:36.980Z,78.49
2022-09-05T04:08:07.893Z,78.42
2022-09-05T04:08:29.180Z,78.50
2022-09-05T04:10:10.965Z,78.52
2022-09-05T04:13:19.202Z,78.41
2022-09-05T04:16:15.527Z,78.42
2022-09-05T04:19:14.788Z,78.46
2022-09-05T04:22:10.471Z,78.64
2022-09-05T04:25:10.052Z,78.78
2022-09-05T04:28:15.264Z,78.92
2022-09-05T04:31:30.353Z,78.98
2022-09-05T04:34:43.042Z,79.16
2022-09-05T04:37:48.213Z,79.18
2022-09-05T04:41:02.065Z,79.20
2022-09-05T04:44:03.616Z,79.27
2022-09-05T04:47:05.468Z,79.38
2022-09-05T04:50:02.427Z,79.59
2022-09-05T04:53:33.549Z,79.61
2022-09-05T04:56:27.470Z,79.66
2022-09-05T05:03:31.287Z,79.76
2022-09-05T05:06:13.501Z,79.93
2022-09-05T05:06:46.941Z,80.07
2022-09-05T05:09:45.737Z,80.22
2022-09-05T05:17:55.976Z,80.23
2022-09-05T05:18:16.108Z,80.51
2022-09-05T05:20:41.159Z,80.30
2022-09-05T05:23:08.758Z,80.19
2022-09-05T05:26:01.837Z,80.09
2022-09-05T05:29:02.397Z,80.12
2022-09-05T05:32:00.056Z,80.42
2022-09-05T05:34:56.565Z,80.64
2022-09-05T05:38:20.823Z,80.78
2022-09-05T05:41:22.530Z,80.91
2022-09-05T05:44:17.140Z,81.09
2022-09-05T05:47:26.780Z,81.16
2022-09-05T05:50:31.247Z,81.27
2022-09-05T05:53:32.007Z,81.33
2022-09-05T05:56:34.398Z,81.43
2022-09-05T05:59:35.271Z,81.44
2022-09-05T06:02:44.229Z,81.48
2022-09-05T06:05:44.872Z,81.45
2022-09-05T06:11:09.428Z,81.48
2022-09-05T06:14:59.311Z,81.43
2022-09-05T06:15:57.396Z,81.41
2022-09-05T06:20:08.272Z,81.40
2022-09-05T06:23:38.653Z,81.41
2022-09-05T06:26:53.914Z,82.19
2022-09-05T06:30:18.449Z,81.98
2022-09-05T06:33:09.753Z,81.50
2022-09-05T06:36:08.965Z,81.22
2022-09-05T06:39:23.292Z,81.22
2022-09-05T06:42:33.436Z,81.13
2022-09-05T06:45:28.643Z,81.02
2022-09-05T06:48:47.056Z,80.85
2022-09-05T06:51:47.752Z,80.54
2022-09-05T06:55:06.653Z,80.39
2022-09-05T06:58:22.831Z,80.20
2022-09-05T07:01:11.582Z,80.02
2022-09-05T07:04:31.931Z,79.65
2022-09-05T07:07:36.715Z,79.24
2022-09-05T07:10:50.699Z,79.01
2022-09-05T07:13:56.857Z,78.77
2022-09-05T07:16:56.308Z,78.48
2022-09-05T07:20:05.671Z,78.17
2022-09-05T07:23:51.374Z,78.06
2022-09-05T07:26:49.622Z,77.74
2022-09-05T07:29:35.223Z,76.90
2022-09-05T07:32:24.433Z,74.17
2022-09-05T07:35:31.161Z,71.38
2022-09-05T07:38:50.222Z,67.18
2022-09-05T07:41:54.043Z,58.62
2022-09-05T07:44:54.223Z,52.10
2022-09-05T07:47:55.910Z,49.39
2022-09-05T07:56:34.715Z,42.38
2022-09-05T07:57:06.509Z,38.56
2022-09-05T07:57:51.395Z,34.72
2022-09-05T08:00:53.824Z,32.71
2022-09-05T08:03:44.134Z,30.72
2022-09-05T08:07:46.547Z,29.95
2022-09-05T08:10:08.518Z,27.52
2022-09-05T08:13:24.192Z,26.31
2022-09-05T08:16:16.293Z,24.95
2022-09-05T08:19:39.738Z,23.88
2022-09-05T08:22:31.093Z,21.65
2022-09-05T08:25:27.511Z,22.84
2022-09-05T08:28:33.765Z,22.55
2022-09-05T08:31:52.785Z,21.10
2022-09-05T08:34:52.548Z,19.80
2022-09-05T08:37:43.089Z,19.76
2022-09-05T08:40:39.358Z,19.19
2022-09-05T08:46:36.945Z,18.86
2022-09-05T08:47:26.171Z,18.32
2022-09-05T08:50:56.882Z,17.54
2022-09-05T08:54:27.521Z,17.06
2022-09-05T08:57:25.461Z,16.70
2022-09-05T09:00:24.183Z,16.38
2022-09-05T09:03:22.380Z,16.16
2022-09-05T09:06:16.124Z,16.16
2022-09-05T09:09:18.580Z,16.13
2022-09-05T09:12:52.226Z,17.27
2022-09-05T09:16:11.314Z,17.04
2022-09-05T09:19:10.977Z,16.25
2022-09-05T09:22:23.689Z,16.81
2022-09-05T09:25:31.840Z,17.70
2022-09-05T09:28:49.894Z,19.18
2022-09-05T09:32:07.496Z,20.88
2022-09-05T09:35:20.902Z,21.78
2022-09-05T09:38:14.937Z,23.41
2022-09-05T09:41:19.168Z,24.45
2022-09-05T09:44:42.552Z,25.91
2022-09-05T09:47:56.697Z,27.49
2022-09-05T09:50:58.319Z,28.44
2022-09-05T09:54:21.025Z,29.43
2022-09-05T09:57:44.368Z,31.31
2022-09-05T10:00:51.327Z,32.48
2022-09-05T10:09:57.954Z,33.21
2022-09-05T10:11:09.666Z,34.28
2022-09-05T10:14:49.672Z,35.74
2022-09-05T10:17:46.675Z,36.11
2022-09-05T10:21:15.719Z,35.94
2022-09-05T10:24:19.687Z,36.04
2022-09-05T10:27:19.809Z,36.33
2022-09-05T10:31:52.781Z,36.36
2022-09-05T10:35:13.000Z,36.09
2022-09-05T10:37:12.237Z,35.98
2022-09-05T10:40:06.503Z,36.45
2022-09-05T10:43:11.047Z,36.83
2022-09-05T10:45:58.484Z,36.51
2022-09-05T10:48:58.999Z,36.42
2022-09-05T10:52:41.394Z,36.63
2022-09-05T10:55:55.633Z,36.67
2022-09-05T11:01:46.948Z,36.71
2022-09-05T11:02:34.653Z,36.99
2022-09-05T11:05:29.683Z,37.08
2022-09-05T11:08:28.698Z,37.21
2022-09-05T11:11:34.687Z,37.04
2022-09-05T11:14:52.463Z,37.23
2022-09-05T11:17:44.889Z,37.07
2022-09-05T11:21:04.809Z,37.19
2022-09-05T11:24:12.402Z,37.59
2022-09-05T11:27:25.208Z,37.81
2022-09-05T11:30:28.392Z,37.79
2022-09-05T11:39:59.857Z,38.26
2022-09-05T11:40:04.817Z,38.44
2022-09-05T11:40:35.358Z,38.66
2022-09-05T11:44:26.230Z,38.82
2022-09-05T11:47:48.603Z,38.98
2022-09-05T11:50:57.857Z,39.07
2022-09-05T11:54:15.632Z,39.24
2022-09-05T11:57:33.218Z,39.13
2022-09-05T12:00:34.486Z,39.57
2022-09-05T12:04:01.586Z,39.28
2022-09-05T12:07:31.771Z,39.35
2022-09-05T12:10:47.031Z,39.41
2022-09-05T12:14:20.958Z,39.50
2022-09-05T12:17:35.206Z,39.58
2022-09-05T12:20:37.472Z,39.46
2022-09-05T12:24:53.355Z,39.60
2022-09-05T12:27:42.930Z,39.56
2022-09-05T12:30:42.436Z,39.40
2022-09-05T12:40:54.274Z,39.94
2022-09-05T12:41:38.506Z,39.82
2022-09-05T12:42:10.210Z,39.61
2022-09-05T12:44:16.905Z,39.94
2022-09-05T12:46:45.856Z,39.94
2022-09-05T12:49:51.903Z,39.92
2022-09-05T12:53:06.931Z,39.99
2022-09-05T12:56:32.253Z,39.70
2022-09-05T13:02:58.640Z,39.38
2022-09-05T13:03:14.117Z,39.41
2022-09-05T13:06:21.468Z,39.65
2022-09-05T13:09:30.875Z,39.35
2022-09-05T13:14:57.341Z,39.24
2022-09-05T13:16:03.535Z,39.43
2022-09-05T13:19:07.104Z,38.90
2022-09-05T13:21:57.731Z,39.05
2022-09-05T13:24:50.988Z,39.03
2022-09-05T13:27:46.651Z,38.45
2022-09-05T13:34:34.003Z,38.99
2022-09-05T13:38:00.004Z,38.40
2022-09-05T13:38:13.927Z,38.11
2022-09-05T13:40:27.482Z,37.81
2022-09-05T13:43:26.658Z,38.26
2022-09-05T13:46:26.554Z,38.49
2022-09-05T13:49:39.764Z,38.19
2022-09-05T13:52:38.776Z,38.01
2022-09-05T13:55:38.101Z,38.45
2022-09-05T13:58:56.842Z,38.57
2022-09-05T14:02:25.943Z,37.56
2022-09-05T14:05:41.532Z,37.55
2022-09-05T14:08:44.115Z,38.05
2022-09-05T14:11:57.937Z,37.84
2022-09-05T14:15:12.626Z,37.81
2022-09-05T14:18:20.226Z,38.03
2022-09-05T14:21:19.821Z,38.64
2022-09-05T14:24:28.319Z,38.67
2022-09-05T14:27:25.898Z,38.63
2022-09-05T14:32:56.059Z,38.98
2022-09-05T14:37:40.626Z,37.79
2022-09-05T14:37:50.985Z,38.90
2022-09-05T14:41:04.901Z,38.21
2022-09-05T14:44:01.660Z,37.75
2022-09-05T14:46:49.871Z,37.90
2022-09-05T14:49:42.468Z,37.84
2022-09-05T14:52:20.320Z,37.26
2022-09-05T15:02:44.407Z,38.05
2022-09-05T15:02:54.993Z,38.38
2022-09-05T15:06:41.148Z,38.34
2022-09-05T15:12:14.176Z,38.37
2022-09-05T15:12:31.376Z,38.37
2022-09-05T15:15:26.267Z,37.80
2022-09-05T15:18:13.737Z,37.87
2022-09-05T15:20:46.343Z,38.08
2022-09-05T15:23:24.566Z,38.01
2022-09-05T15:26:04.859Z,38.04
2022-09-05T15:28:43.741Z,37.49
2022-09-05T15:31:25.226Z,37.79
2022-09-05T15:33:56.856Z,37.91
2022-09-05T15:36:40.625Z,37.99
2022-09-05T15:39:29.400Z,37.96
2022-09-05T15:42:24.173Z,38.05
2022-09-05T15:45:10.105Z,38.00
2022-09-05T15:48:02.454Z,38.05
2022-09-05T15:50:43.388Z,38.33
2022-09-05T15:53:25.352Z,38.56
2022-09-05T15:56:01.185Z,38.72
2022-09-05T15:58:52.316Z,39.08
2022-09-05T16:01:58.631Z,38.92
2022-09-05T16:10:27.569Z,39.17
2022-09-05T16:10:39.106Z,39.28
2022-09-05T16:10:39.699Z,39.16
2022-09-05T16:13:43.623Z,39.24
2022-09-05T16:21:47.356Z,39.20
2022-09-05T16:23:26.465Z,39.57
2022-09-05T16:23:33.822Z,39.60
2022-09-05T16:25:28.379Z,39.57
2022-09-05T16:28:16.218Z,39.54
2022-09-05T16:30:44.002Z,39.66
2022-09-05T16:33:16.701Z,39.56
2022-09-05T16:35:49.903Z,39.62
2022-09-05T16:38:48.616Z,39.51
2022-09-05T16:41:42.419Z,39.62
2022-09-05T16:44:36.294Z,39.95
2022-09-05T16:47:44.950Z,40.24
2022-09-05T16:50:34.625Z,40.43
2022-09-05T16:53:32.288Z,40.73
2022-09-05T16:56:30.447Z,40.78
2022-09-05T16:59:10.630Z,40.90
2022-09-05T17:01:50.893Z,41.11
2022-09-05T17:04:38.826Z,41.18
2022-09-05T17:07:32.897Z,41.27
2022-09-05T17:10:20.021Z,41.82
2022-09-05T17:12:54.965Z,42.36
2022-09-05T17:15:37.587Z,42.61
2022-09-05T17:18:19.706Z,42.67
2022-09-05T17:20:59.109Z,42.85
2022-09-05T17:29:15.585Z,43.09
2022-09-05T17:29:36.091Z,43.44
2022-09-05T17:32:52.216Z,44.14
2022-09-05T17:35:31.554Z,44.51
2022-09-05T17:38:34.561Z,44.60
2022-09-05T17:41:54.602Z,45.07
2022-09-05T17:44:44.200Z,45.40
2022-09-05T17:47:50.163Z,45.68
2022-09-05T17:50:53.139Z,46.46
2022-09-05T17:53:33.713Z,46.52
2022-09-05T17:56:04.695Z,46.33
2022-09-05T17:58:49.307Z,46.24
2022-09-05T18:01:26.696Z,46.42
2022-09-05T18:04:18.053Z,46.26
2022-09-05T18:06:59.390Z,46.30
2022-09-05T18:09:49.639Z,46.36
2022-09-05T18:15:27.204Z,46.62
2022-09-05T18:17:55.150Z,46.23
2022-09-05T18:21:12.342Z,46.11
2022-09-05T18:23:58.930Z,46.18
2022-09-05T18:26:37.495Z,46.33
2022-09-05T18:29:16.182Z,46.47
2022-09-05T18:31:45.309Z,46.49
2022-09-05T18:34:19.716Z,46.40
2022-09-05T18:37:29.293Z,46.34
2022-09-05T18:40:36.399Z,46.41
2022-09-05T18:43:20.902Z,46.67
2022-09-05T18:46:08.065Z,46.75
2022-09-05T18:50:08.161Z,46.78
2022-09-05T18:52:02.059Z,46.78
2022-09-05T18:54:36.982Z,46.92
2022-09-05T18:57:28.482Z,47.08
2022-09-05T19:00:07.995Z,47.10
2022-09-05T19:02:59.370Z,47.42
2022-09-05T19:05:51.701Z,47.61
2022-09-05T19:08:31.951Z,47.75
2022-09-05T19:11:27.803Z,48.24
2022-09-05T19:14:26.186Z,48.12
2022-09-05T19:16:52.769Z,47.97
2022-09-05T19:19:27.336Z,48.19
2022-09-05T19:22:39.574Z,48.36
2022-09-05T19:24:50.232Z,48.54
2022-09-05T19:28:05.976Z,48.77
2022-09-05T19:36:58.902Z,48.81
2022-09-05T19:37:03.786Z,48.77
2022-09-05T19:37:06.263Z,48.54
2022-09-05T19:44:01.945Z,48.59
2022-09-05T19:47:30.684Z,48.70
2022-09-05T19:47:34.474Z,48.60
2022-09-05T19:50:58.642Z,48.93
2022-09-05T19:53:26.735Z,48.81
2022-09-05T19:55:59.784Z,48.92
2022-09-05T19:58:30.822Z,49.09
2022-09-05T20:01:08.425Z,49.19
2022-09-05T20:03:45.643Z,49.51
2022-09-05T20:06:31.996Z,49.75
2022-09-05T20:09:20.125Z,49.85
2022-09-05T20:11:58.896Z,50.55
2022-09-05T20:14:31.049Z,50.52
2022-09-05T20:17:31.575Z,50.51
2022-09-05T20:20:15.557Z,50.71
2022-09-05T20:22:51.500Z,50.93
2022-09-05T20:25:35.302Z,51.46
2022-09-05T20:28:22.429Z,51.46
2022-09-05T20:31:08.428Z,51.69
2022-09-05T20:33:48.146Z,52.00
2022-09-05T20:43:08.337Z,52.31
2022-09-05T20:43:15.472Z,53.23
2022-09-05T20:43:32.443Z,52.65
2022-09-05T20:45:48.442Z,53.71
2022-09-05T20:54:07.459Z,54.13
2022-09-05T20:54:23.019Z,54.13
2022-09-05T20:54:34.757Z,54.81
2022-09-05T20:57:28.944Z,55.31
2022-09-05T21:00:06.475Z,55.39
2022-09-05T21:02:34.734Z,55.73
2022-09-05T21:05:20.970Z,56.01
2022-09-05T21:08:06.890Z,56.35
2022-09-05T21:10:57.450Z,56.37
2022-09-05T21:13:32.822Z,56.61
2022-09-05T21:16:19.898Z,56.54
2022-09-05T21:18:51.952Z,56.60
2022-09-05T21:21:30.229Z,56.95
2022-09-05T21:24:17.534Z,57.42
2022-09-05T21:26:52.531Z,57.51
2022-09-05T21:29:32.781Z,57.28
2022-09-05T21:32:10.479Z,57.13
2022-09-05T21:34:55.204Z,56.97
2022-09-05T21:37:26.485Z,56.90
2022-09-05T21:40:00.954Z,56.87
2022-09-05T21:47:33.263Z,56.86
2022-09-05T21:47:47.727Z,56.77
2022-09-05T21:48:16.907Z,56.43
2022-09-05T21:51:02.731Z,55.85
2022-09-05T21:57:53.658Z,55.78
2022-09-05T21:59:21.637Z,55.72
2022-09-05T21:59:46.536Z,55.61
2022-09-05T22:02:18.256Z,55.58
2022-09-05T22:04:48.470Z,55.70
2022-09-05T22:07:31.811Z,55.86
2022-09-05T22:10:08.620Z,55.69
2022-09-05T22:12:41.569Z,55.44
2022-09-05T22:15:27.392Z,55.36
2022-09-05T22:18:27.064Z,55.49
2022-09-05T22:21:32.545Z,55.61
2022-09-05T22:23:54.168Z,55.37
2022-09-05T22:26:22.235Z,55.19
2022-09-05T22:28:52.553Z,55.02
2022-09-05T22:31:23.723Z,55.02
2022-09-05T22:33:54.815Z,55.09
2022-09-05T22:36:24.991Z,55.13
2022-09-05T22:38:55.258Z,54.98
2022-09-05T22:41:30.431Z,54.86
2022-09-05T22:44:04.933Z,54.92
2022-09-05T22:46:33.059Z,55.41
2022-09-05T22:49:00.909Z,55.66
2022-09-05T22:51:28.754Z,55.67
2022-09-05T22:53:56.787Z,55.89
2022-09-05T22:56:34.777Z,56.13
2022-09-05T22:59:06.871Z,56.31
2022-09-05T23:01:37.955Z,56.52
2022-09-05T23:04:09.088Z,56.70
2022-09-05T23:06:38.283Z,56.65
2022-09-05T23:09:06.176Z,56.89
2022-09-05T23:11:36.044Z,56.98
2022-09-05T23:14:06.894Z,57.23
2022-09-05T23:16:37.790Z,57.25
2022-09-05T23:19:08.427Z,57.33
2022-09-05T23:21:36.374Z,57.21
2022-09-05T23:24:04.726Z,57.17
2022-09-05T23:26:35.402Z,57.31
2022-09-05T23:29:03.477Z,57.65
2022-09-05T23:31:33.741Z,57.72
2022-09-05T23:34:04.701Z,57.64
2022-09-05T23:36:34.745Z,57.63
2022-09-05T23:39:05.585Z,57.89
2022-09-05T23:41:35.154Z,58.01
2022-09-05T23:44:02.975Z,58.42
2022-09-05T23:46:35.155Z,58.55
2022-09-05T23:49:06.134Z,58.99
2022-09-05T23:51:36.996Z,59.26
2022-09-05T23:54:04.717Z,59.31
2022-09-05T23:56:32.412Z,59.31
2022-09-05T23:59:00.360Z,59.60
